795  
SXUS55 KTFX 261144  
OSOTFX  
AREA AWOS OBSERVATIONS  
NATIONAL WEATHER SERVICE GREAT FALLS MT  
0544 AM MDT WED APR 26 2017  
 
METAR KPWD 261145Z AUTO 07006KT 10SM M04/M06 A2994 RMK PLENTYWOOD  
METAR KPO1 261145Z AUTO 11007KT 10SM 01/M04 A2993 RMK POPLAR  
METAR KS71 261145Z AUTO 08007KT 10SM 03/01 A2981 RMK CHINOOK  
METAR K79S 261145Z AUTO 10SM 03/01 A2977 RMK FORT BENTON  
METAR K38S 261145Z AUTO 00000KT 10SM 02/00 A2978 RMK DEER LODGE  
METAR K3U3 261145Z AUTO 00000KT 10SM 02/00 A2976 RMK ANACONDA  
METAR K6S5 261145Z AUTO 17003KT 10SM 04/03 A2976 RMK HAMILTON  
METAR K88M 261145Z AUTO 15007KT 10SM 05/02 A2971 RMK EUREKA  
 
CLICK HERE TO GO TO PREVIOUS BULLETINS.

The Nexlab MT Page Main Text Page